Time;durP1;ratioP1;P1;durP2;ratioP2;P2;SDS_P1;SDS_P2;PMS_P1;PMS_P2;Temp;Humidity;BMP_temperature;BMP_pressure;BME280_temperature;BME280_humidity;BME280_pressure;Samples;Min_cycle;Max_cycle;Signal;HPM_P1;HPM_P2
2022/07/21 05:09:03;;;;;;;;;25.00;20.25;;;;;21.54;63.59;101891.00;2285363;27;45834;-81
2022/07/21 05:10:17;;;;;;;;;21.75;19.00;;;;;21.57;64.18;101894.38;2355467;29;44837;-81
2022/07/21 05:11:28;;;;;;;;;23.50;20.25;;;;;21.57;63.99;101893.50;2355572;29;46418;-81
2022/07/21 05:12:38;;;;;;;;;20.00;17.25;;;;;21.58;63.48;101904.09;2355807;29;45467;-80
2022/07/21 05:13:48;;;;;;;;;24.00;21.75;;;;;21.63;63.65;101894.94;2356578;29;45429;-80
2022/07/21 05:14:59;;;;;;;;;19.50;17.50;;;;;21.64;63.73;101896.66;2356876;29;45589;-79
2022/07/21 05:16:09;;;;;;;;;19.00;18.75;;;;;21.65;63.74;101898.38;2357278;29;45284;-79
2022/07/21 05:17:20;;;;;;;;;21.50;18.50;;;;;21.63;63.72;101901.13;2359177;29;45413;-79
2022/07/21 05:18:30;;;;;;;;;18.25;17.00;;;;;21.62;63.90;101891.41;2356561;29;46173;-77
2022/07/21 05:19:42;;;;;;;;;17.50;14.25;;;;;21.65;64.04;101893.03;2356864;29;45172;-77
2022/07/21 05:20:52;;;;;;;;;18.00;17.50;;;;;21.68;63.49;101893.69;2357191;29;46322;-78
2022/07/21 05:22:03;;;;;;;;;16.25;14.75;;;;;21.68;63.69;101898.19;2357406;29;45156;-78
2022/07/21 05:23:13;;;;;;;;;15.50;15.50;;;;;21.68;63.72;101893.69;2357032;29;45334;-78
2022/07/21 05:24:24;;;;;;;;;20.25;18.75;;;;;21.68;63.45;101896.34;2357269;29;45360;-77
2022/07/21 05:25:35;;;;;;;;;26.00;20.50;;;;;21.69;63.78;101899.91;2356974;29;45581;-77
2022/07/21 05:26:46;;;;;;;;;25.25;19.50;;;;;21.68;63.30;101895.53;2357501;29;45443;-77
2022/07/21 05:27:56;;;;;;;;;20.25;18.00;;;;;21.67;63.51;101896.47;2356955;29;45809;-78
2022/07/21 05:29:07;;;;;;;;;24.75;19.25;;;;;21.67;63.62;101896.47;2357361;29;44681;-78
2022/07/21 05:30:17;;;;;;;;;19.75;17.75;;;;;21.65;63.40;101896.56;2356075;29;46379;-78
2022/07/21 05:31:28;;;;;;;;;19.00;19.00;;;;;21.66;63.86;101894.72;2346031;29;45377;-78
2022/07/21 05:32:38;;;;;;;;;20.25;17.75;;;;;21.66;63.81;101900.94;2350010;29;45208;-78
2022/07/21 05:33:48;;;;;;;;;25.25;21.00;;;;;21.64;64.04;101894.84;2356864;29;44765;-78
2022/07/21 05:34:59;;;;;;;;;20.00;18.50;;;;;21.63;63.71;101895.78;2357026;29;45211;-77
2022/07/21 05:36:09;;;;;;;;;17.00;17.00;;;;;21.63;63.65;101898.47;2357405;29;45632;-77
2022/07/21 05:37:20;;;;;;;;;19.75;19.25;;;;;21.64;63.54;101900.19;2357119;29;45609;-79
2022/07/21 05:38:32;;;;;;;;;15.00;13.00;;;;;21.65;63.46;101899.25;2357082;29;45420;-80
2022/07/21 05:39:42;;;;;;;;;21.50;20.00;;;;;21.68;63.88;101900.88;2357268;29;45478;-81
2022/07/21 05:40:53;;;;;;;;;20.00;18.00;;;;;21.70;63.68;101897.13;2357229;29;45387;-82
2022/07/21 05:42:03;;;;;;;;;24.25;18.50;;;;;21.75;63.85;101898.66;2356419;29;47395;-75
2022/07/21 05:43:13;;;;;;;;;22.25;20.50;;;;;21.75;63.31;101904.03;2355717;29;45462;-75
2022/07/21 05:44:24;;;;;;;;;18.25;17.00;;;;;21.77;63.88;101902.97;2363551;29;45403;-75
2022/07/21 05:45:34;;;;;;;;;20.25;19.00;;;;;21.77;63.52;101902.97;2363925;29;45465;-74
2022/07/21 05:46:44;;;;;;;;;22.25;19.50;;;;;21.79;63.71;101910.88;2356092;29;48040;-75
2022/07/21 05:47:55;;;;;;;;;23.50;21.00;;;;;21.79;63.64;101906.41;2354791;29;45346;-74
2022/07/21 05:49:05;;;;;;;;;21.75;21.75;;;;;21.82;63.28;101910.72;2365688;29;47203;-74
2022/07/21 05:50:15;;;;;;;;;18.50;18.50;;;;;21.81;63.63;101909.84;2363327;29;45379;-74
2022/07/21 05:51:26;;;;;;;;;20.75;18.75;;;;;21.84;63.72;101919.50;2348040;29;47081;-75
2022/07/21 05:52:36;;;;;;;;;20.75;20.00;;;;;21.88;63.95;101915.69;2350908;29;44699;-74
2022/07/21 05:53:47;;;;;;;;;20.25;19.00;;;;;21.90;62.88;101919.13;2354645;29;45251;-75
2022/07/21 05:54:57;;;;;;;;;20.50;18.75;;;;;21.92;63.16;101914.56;2356832;29;45306;-75
2022/07/21 05:56:07;;;;;;;;;19.75;19.00;;;;;21.93;63.15;101915.41;2357123;29;45400;-75
2022/07/21 05:57:18;;;;;;;;;21.75;21.00;;;;;21.96;63.04;101912.53;2357334;29;45443;-75
2022/07/21 05:58:28;;;;;;;;;18.75;17.50;;;;;21.98;63.57;101923.13;2356411;29;46574;-75
2022/07/21 05:59:39;;;;;;;;;19.75;19.00;;;;;21.99;63.26;101912.34;2356209;29;46271;-75
2022/07/21 06:01:08;;;;;;;;;22.50;19.50;;;;;21.98;63.41;101924.00;2347301;29;48254;-75
2022/07/21 06:02:18;;;;;;;;;18.25;17.25;;;;;21.98;62.89;101926.69;2352690;29;45511;-75
2022/07/21 06:03:29;;;;;;;;;22.75;18.00;;;;;21.98;63.26;101926.69;2347103;29;47983;-75
2022/07/21 06:04:39;;;;;;;;;20.00;18.75;;;;;22.00;63.39;101926.59;2347664;29;45168;-75
2022/07/21 06:05:49;;;;;;;;;20.50;18.25;;;;;22.00;62.77;101918.56;2356419;29;47437;-75
2022/07/21 06:06:59;;;;;;;;;21.75;18.50;;;;;22.00;63.36;101930.09;2347315;29;45293;-75
2022/07/21 06:08:10;;;;;;;;;22.75;18.00;;;;;22.05;63.32;101937.00;2340389;29;47905;-75
2022/07/21 06:09:21;;;;;;;;;23.00;19.25;;;;;22.07;62.78;101935.97;2349759;29;44689;-75
2022/07/21 06:10:31;;;;;;;;;21.75;18.00;;;;;22.10;63.56;101926.88;2357049;29;45491;-75
2022/07/21 06:11:41;;;;;;;;;20.75;19.75;;;;;22.14;63.26;101925.72;2357027;29;45334;-75
2022/07/21 06:12:52;;;;;;;;;16.75;16.25;;;;;22.17;62.74;101930.88;2356098;29;47244;-74
2022/07/21 06:14:03;;;;;;;;;22.00;19.50;;;;;22.22;62.87;101933.25;2357232;29;44767;-75
2022/07/21 06:15:14;;;;;;;;;22.50;19.25;;;;;22.25;62.58;101931.22;2347194;29;48101;-75
2022/07/21 06:16:24;;;;;;;;;14.50;11.50;;;;;22.28;62.64;101931.97;2349822;29;45318;-75
2022/07/21 06:17:42;;;;;;;;;19.25;19.25;;;;;22.30;62.77;101932.78;2357310;29;46175;-74
2022/07/21 06:18:53;;;;;;;;;19.00;16.75;;;;;22.33;62.45;101929.88;2357644;29;45474;-76
2022/07/21 06:20:05;;;;;;;;;19.75;17.75;;;;;22.33;62.44;101928.06;2357220;29;46294;-75
2022/07/21 06:21:17;;;;;;;;;18.00;17.00;;;;;22.31;61.73;101931.78;2357679;29;44805;-74
2022/07/21 06:22:28;;;;;;;;;18.00;17.00;;;;;22.28;61.92;101934.66;2357692;29;45445;-74
2022/07/21 06:23:38;;;;;;;;;18.75;18.50;;;;;22.25;62.02;101927.69;2357236;29;45276;-74
2022/07/21 06:24:48;;;;;;;;;22.00;22.00;;;;;22.23;62.31;101925.13;2347235;29;48305;-75
2022/07/21 06:25:59;;;;;;;;;18.75;17.75;;;;;22.25;62.74;101935.72;2359363;29;45174;-75
2022/07/21 06:27:09;;;;;;;;;21.00;18.75;;;;;22.23;62.07;101929.59;2363722;29;45303;-75
2022/07/21 06:28:20;;;;;;;;;19.25;18.50;;;;;22.25;62.83;101933.03;2357452;29;45158;-75
2022/07/21 06:29:31;;;;;;;;;23.00;18.50;;;;;22.28;62.48;101931.97;2346964;29;47228;-74
2022/07/21 06:30:41;;;;;;;;;20.00;17.00;;;;;22.30;62.70;101922.06;2350424;29;44808;-74
2022/07/21 06:31:51;;;;;;;;;21.75;19.50;;;;;22.34;62.25;101931.59;2356843;29;45555;-74
2022/07/21 06:33:02;;;;;;;;;19.75;19.00;;;;;22.36;62.71;101924.31;2357663;29;45352;-74
2022/07/21 06:34:12;;;;;;;;;23.50;20.25;;;;;22.40;62.94;101930.34;2357164;29;45507;-74
2022/07/21 06:35:23;;;;;;;;;18.75;18.00;;;;;22.41;62.32;101926.69;2366026;29;45296;-74
2022/07/21 06:36:33;;;;;;;;;18.50;16.25;;;;;22.41;62.68;101927.56;2363751;28;46129;-74
2022/07/21 06:37:45;;;;;;;;;17.75;14.50;;;;;22.43;62.42;101930.13;2357617;29;45259;-75
2022/07/21 06:38:55;;;;;;;;;19.50;18.00;;;;;22.44;62.50;101929.19;2357175;29;45325;-74
2022/07/21 06:40:07;;;;;;;;;21.50;20.00;;;;;22.46;62.21;101929.94;2357685;29;45450;-75
2022/07/21 06:41:17;;;;;;;;;20.50;19.75;;;;;22.45;62.30;101933.56;2357094;29;45268;-75
2022/07/21 06:42:27;;;;;;;;;24.75;21.25;;;;;22.43;61.77;101936.34;2357368;29;45241;-75
2022/07/21 06:43:38;;;;;;;;;25.50;21.75;;;;;22.42;61.91;101933.78;2356881;29;45382;-75
2022/07/21 06:44:48;;;;;;;;;21.25;19.50;;;;;22.44;62.11;101934.53;2356933;29;45206;-75
2022/07/21 06:45:58;;;;;;;;;20.00;19.00;;;;;22.47;62.47;101934.34;2365538;29;48042;-74
2022/07/21 06:47:09;;;;;;;;;22.00;18.75;;;;;22.51;62.22;101929.63;2363389;29;45312;-74
2022/07/21 06:48:21;;;;;;;;;19.75;16.50;;;;;22.52;62.12;101934.06;2357492;29;45676;-74
2022/07/21 06:49:32;;;;;;;;;21.00;19.75;;;;;22.53;62.04;101933.06;2347242;29;44753;-74
2022/07/21 06:50:42;;;;;;;;;14.50;12.50;;;;;22.55;61.74;101934.69;2348372;29;45417;-74
2022/07/21 06:51:53;;;;;;;;;24.25;20.50;;;;;22.58;62.32;101939.00;2357184;29;45468;-74
2022/07/21 06:53:03;;;;;;;;;21.50;19.75;;;;;22.61;61.72;101941.47;2356997;29;45458;-74
2022/07/21 06:54:14;;;;;;;;;28.50;21.00;;;;;22.61;61.19;101941.47;2356812;29;44817;-75
2022/07/21 06:55:25;;;;;;;;;20.75;15.75;;;;;22.57;61.53;101931.94;2357265;29;46219;-74
2022/07/21 06:56:35;;;;;;;;;21.50;18.50;;;;;22.52;61.75;101942.09;2357445;29;45289;-75
2022/07/21 06:57:45;;;;;;;;;19.00;17.50;;;;;22.49;61.63;101941.28;2357382;29;45492;-75
2022/07/21 06:58:56;;;;;;;;;21.50;21.25;;;;;22.49;61.51;101945.81;2357358;29;44678;-75
2022/07/21 07:00:07;;;;;;;;;23.50;19.25;;;;;22.49;61.99;101949.34;2356202;29;47212;-75
2022/07/21 07:01:18;;;;;;;;;20.00;18.50;;;;;22.52;61.69;101944.75;2346753;29;45462;-74
2022/07/21 07:02:29;;;;;;;;;21.25;19.00;;;;;22.54;62.26;101946.38;2349879;29;46243;-74
2022/07/21 07:03:39;;;;;;;;;20.25;18.50;;;;;22.56;61.63;101946.28;2357359;29;45232;-74
2022/07/21 07:04:50;;;;;;;;;22.50;18.75;;;;;22.56;61.94;101944.47;2356614;29;46854;-74
2022/07/21 07:06:00;;;;;;;;;21.00;20.00;;;;;22.58;61.81;101953.25;2365763;29;45282;-75
2022/07/21 07:07:10;;;;;;;;;19.50;18.75;;;;;22.59;61.61;101952.28;2363235;29;46400;-75
2022/07/21 07:08:21;;;;;;;;;17.50;17.50;;;;;22.62;61.96;101959.25;2356441;29;45299;-75
2022/07/21 07:09:31;;;;;;;;;23.75;20.50;;;;;22.62;61.64;101951.22;2350565;29;45201;-75
2022/07/21 07:10:43;;;;;;;;;19.50;18.75;;;;;22.62;61.33;101951.22;2357331;29;45377;-75
2022/07/21 07:11:55;;;;;;;;;20.50;19.75;;;;;22.61;61.66;101949.50;2356834;29;45700;-75
2022/07/21 07:13:06;;;;;;;;;22.50;18.50;;;;;22.63;61.32;101952.94;2357338;29;45342;-75
2022/07/21 07:14:16;;;;;;;;;19.50;14.75;;;;;22.62;61.35;101951.22;2356921;29;45498;-75
2022/07/21 07:15:26;;;;;;;;;17.25;17.25;;;;;22.62;61.29;101951.22;2362615;29;45302;-75
2022/07/21 07:16:37;;;;;;;;;20.50;19.50;;;;;22.62;61.58;101953.91;2363375;29;45513;-75
2022/07/21 07:17:47;;;;;;;;;21.25;18.00;;;;;22.62;61.55;101961.94;2361794;29;45144;-75
2022/07/21 07:18:57;;;;;;;;;23.00;19.50;;;;;22.63;61.52;101962.78;2356095;29;47724;-74
2022/07/21 07:20:08;;;;;;;;;23.75;20.50;;;;;22.64;61.40;101953.81;2349763;29;44635;-74
2022/07/21 07:21:18;;;;;;;;;23.50;22.00;;;;;22.63;61.34;101958.31;2352004;29;45522;-74
2022/07/21 07:22:29;;;;;;;;;23.50;21.25;;;;;22.63;61.26;101958.31;2347460;29;45288;-74
2022/07/21 07:23:39;;;;;;;;;21.50;20.00;;;;;22.63;61.39;101958.31;2349754;29;45619;-74
2022/07/21 07:24:50;;;;;;;;;20.25;19.75;;;;;22.64;61.75;101962.72;2352860;29;45470;-74
2022/07/21 07:26:00;;;;;;;;;22.50;20.25;;;;;22.65;61.70;101956.38;2349561;29;48133;-74
2022/07/21 07:27:11;;;;;;;;;22.50;19.75;;;;;22.66;61.53;101963.47;2347965;29;44710;-73
2022/07/21 07:28:21;;;;;;;;;26.50;21.50;;;;;22.65;61.16;101951.03;2356399;29;45278;-74
2022/07/21 07:29:32;;;;;;;;;19.25;18.25;;;;;22.66;61.90;101962.59;2347465;29;44773;-74
2022/07/21 07:30:42;;;;;;;;;24.00;19.50;;;;;22.69;61.34;101957.91;2350061;29;45382;-74
2022/07/21 07:31:52;;;;;;;;;20.50;18.75;;;;;22.72;61.27;101964.91;2357016;29;45352;-74
2022/07/21 07:33:03;;;;;;;;;23.00;20.50;;;;;22.75;61.24;101961.16;2356815;29;46289;-74
2022/07/21 07:34:13;;;;;;;;;22.00;20.00;;;;;22.76;61.15;101960.22;2357161;29;45214;-74
2022/07/21 07:35:23;;;;;;;;;23.25;19.00;;;;;22.78;61.00;101958.28;2365657;28;46282;-74
2022/07/21 07:36:35;;;;;;;;;25.25;20.75;;;;;22.80;61.13;101959.03;2363130;29;45254;-74
2022/07/21 07:37:46;;;;;;;;;26.50;22.50;;;;;22.80;61.79;101959.03;2356932;29;45531;-74
2022/07/21 07:38:58;;;;;;;;;18.25;16.50;;;;;22.81;61.67;101961.63;2356815;29;45332;-74
2022/07/21 07:40:12;;;;;;;;;22.00;20.75;;;;;22.84;61.72;101965.91;2357109;29;45715;-74
2022/07/21 07:41:24;;;;;;;;;21.00;18.50;;;;;22.85;61.17;101966.78;2346280;29;45269;-75
2022/07/21 07:42:36;;;;;;;;;21.75;18.75;;;;;22.87;60.90;101959.47;2349155;29;46653;-74
2022/07/21 07:43:48;;;;;;;;;21.75;17.00;;;;;22.88;61.19;101956.72;2364417;29;45386;-74
2022/07/21 07:44:58;;;;;;;;;24.50;21.00;;;;;22.92;61.05;101965.41;2364939;28;45674;-74
2022/07/21 07:46:10;;;;;;;;;24.25;20.25;;;;;22.96;61.08;101961.56;2372183;28;45240;-74
2022/07/21 07:47:21;;;;;;;;;14.75;14.75;;;;;22.99;60.79;101963.19;2362797;29;47010;-74
2022/07/21 07:48:32;;;;;;;;;23.50;19.25;;;;;23.02;60.68;101965.63;2364170;29;44712;-74
2022/07/21 07:49:42;;;;;;;;;22.75;19.50;;;;;23.07;60.85;101955.47;2362189;29;45373;-74
2022/07/21 07:50:52;;;;;;;;;19.75;18.25;;;;;23.09;60.53;101964.25;2357121;29;45331;-74
2022/07/21 07:52:03;;;;;;;;;19.25;17.50;;;;;23.12;61.05;101963.19;2356743;29;48071;-74
2022/07/21 07:53:13;;;;;;;;;11.00;9.50;;;;;23.15;61.00;101971.91;2356252;29;45342;-74
2022/07/21 07:54:24;;;;;;;;;19.00;17.25;;;;;23.20;60.35;101970.72;2356737;29;45494;-74
2022/07/21 07:55:34;;;;;;;;;17.25;16.00;;;;;23.24;60.83;101962.38;2356922;29;44804;-74
2022/07/21 07:56:44;;;;;;;;;25.75;20.00;;;;;23.31;60.39;101970.84;2356535;29;45323;-75
2022/07/21 07:57:55;;;;;;;;;20.75;19.75;;;;;23.37;60.74;101966.91;2357099;29;45417;-76
2022/07/21 07:59:05;;;;;;;;;22.75;17.50;;;;;23.42;60.17;101969.25;2355152;29;45490;-77
2022/07/21 08:00:17;;;;;;;;;22.25;19.25;;;;;23.46;60.13;101971.63;2342740;29;45170;-77
2022/07/21 08:01:29;;;;;;;;;19.50;17.75;;;;;23.52;60.14;101970.38;2351319;29;46703;-77
2022/07/21 08:02:43;;;;;;;;;21.00;18.25;;;;;23.60;59.46;101977.91;2348183;29;45209;-76
2022/07/21 08:03:56;;;;;;;;;22.00;18.75;;;;;23.68;59.73;101982.75;2351806;29;46937;-76
2022/07/21 08:05:08;;;;;;;;;19.50;18.50;;;;;23.73;59.34;101977.88;2357377;29;45193;-77
2022/07/21 08:06:22;;;;;;;;;25.00;20.75;;;;;23.79;59.68;101982.84;2348091;29;49832;-76
2022/07/21 08:07:32;;;;;;;;;24.75;20.75;;;;;23.87;59.57;101984.13;2351002;29;45249;-76
2022/07/21 08:08:43;;;;;;;;;19.50;18.25;;;;;23.92;59.26;101984.66;2354893;29;46009;-76
2022/07/21 08:09:53;;;;;;;;;18.75;17.00;;;;;23.92;59.12;101987.34;2357931;29;45393;-76
2022/07/21 08:11:04;;;;;;;;;22.50;20.50;;;;;23.92;58.34;101982.84;2355510;29;46539;-76
2022/07/21 08:12:14;;;;;;;;;19.75;18.00;;;;;23.92;58.85;101984.66;2355943;29;45386;-76
2022/07/21 08:13:25;;;;;;;;;24.50;20.00;;;;;23.93;58.90;101984.53;2365956;29;46532;-76
2022/07/21 08:14:35;;;;;;;;;18.75;15.25;;;;;23.93;58.89;101981.84;2359367;29;45507;-76
2022/07/21 08:15:47;;;;;;;;;19.25;18.00;;;;;23.94;58.46;101983.59;2361008;29;46644;-76
2022/07/21 08:16:58;;;;;;;;;24.25;19.00;;;;;23.93;58.79;101989.91;2350959;29;45431;-76
2022/07/21 08:18:09;;;;;;;;;20.00;18.50;;;;;23.94;59.38;101982.72;2347428;29;45397;-76
2022/07/21 08:19:19;;;;;;;;;22.00;20.25;;;;;23.96;58.91;101988.84;2357075;29;45284;-76
2022/07/21 08:20:29;;;;;;;;;21.50;17.75;;;;;23.93;59.10;101992.59;2356695;29;46098;-76
2022/07/21 08:21:40;;;;;;;;;25.00;22.75;;;;;23.94;59.22;101991.63;2356875;29;45452;-76
2022/07/21 08:22:50;;;;;;;;;21.75;20.00;;;;;23.93;58.39;101997.97;2356611;29;46286;-76
2022/07/21 08:24:01;;;;;;;;;21.25;20.00;;;;;23.92;59.00;101998.94;2356696;29;45907;-76
2022/07/21 08:25:11;;;;;;;;;17.00;15.75;;;;;23.93;58.56;101995.28;2356695;29;46268;-76
2022/07/21 08:26:22;;;;;;;;;26.50;22.75;;;;;23.95;59.01;101992.50;2356791;29;45347;-76
2022/07/21 08:27:32;;;;;;;;;21.25;20.50;;;;;23.97;58.86;101992.38;2354084;29;47095;-77
2022/07/21 08:28:43;;;;;;;;;22.00;21.00;;;;;23.99;58.49;101987.75;2354676;29;45347;-77
2022/07/21 08:29:53;;;;;;;;;20.50;19.75;;;;;24.01;58.41;101997.41;2356183;29;45341;-77
2022/07/21 08:31:04;;;;;;;;;17.50;16.00;;;;;24.04;58.51;101997.22;2356900;29;45296;-77
2022/07/21 08:32:17;;;;;;;;;14.25;14.25;;;;;24.09;58.57;101996.03;2346718;29;47497;-77
2022/07/21 08:33:28;;;;;;;;;18.00;15.25;;;;;24.12;58.04;101999.34;2350146;29;44700;-76
2022/07/21 08:34:38;;;;;;;;;26.50;20.25;;;;;24.17;58.38;101999.84;2356737;29;45408;-76
2022/07/21 08:35:48;;;;;;;;;24.50;19.75;;;;;24.20;58.24;102003.31;2356839;29;45304;-76
2022/07/21 08:36:59;;;;;;;;;22.25;20.25;;;;;24.21;58.24;102000.50;2358743;29;46372;-76
2022/07/21 08:38:11;;;;;;;;;25.50;21.00;;;;;24.23;58.14;102003.94;2365342;29;45303;-76
2022/07/21 08:39:21;;;;;;;;;19.25;17.50;;;;;24.26;57.90;102001.06;2360023;29;45281;-76
2022/07/21 08:40:35;;;;;;;;;18.50;16.75;;;;;24.30;58.00;101998.19;2356760;29;45302;-76
2022/07/21 08:41:45;;;;;;;;;18.75;18.00;;;;;24.31;57.77;101997.19;2356667;29;45507;-76
2022/07/21 08:42:56;;;;;;;;;23.50;21.75;;;;;24.33;57.57;101992.56;2356682;29;45336;-77
2022/07/21 08:44:10;;;;;;;;;21.25;19.75;;;;;24.35;57.74;101995.97;2356584;29;45258;-77
2022/07/21 08:45:22;;;;;;;;;17.00;17.00;;;;;24.36;57.65;101995.91;2361889;29;45161;-76
2022/07/21 08:46:33;;;;;;;;;26.00;23.00;;;;;24.39;57.81;101998.38;2363872;29;46381;-76
2022/07/21 08:47:44;;;;;;;;;26.00;22.00;;;;;24.43;57.64;101998.13;2357789;29;45270;-76
2022/07/21 08:48:54;;;;;;;;;21.25;20.75;;;;;24.43;57.72;101998.13;2363939;29;46300;-76
2022/07/21 08:50:08;;;;;;;;;28.00;23.75;;;;;24.44;57.43;101998.03;2364775;29;44618;-76
2022/07/21 08:51:18;;;;;;;;;25.75;20.00;;;;;24.44;57.31;102002.53;2356680;29;46312;-76
2022/07/21 08:52:29;;;;;;;;;17.50;17.50;;;;;24.44;57.32;102000.72;2356873;29;45440;-76
2022/07/21 08:53:39;;;;;;;;;23.75;20.25;;;;;24.45;57.51;102001.56;2368139;28;46120;-76
2022/07/21 08:54:50;;;;;;;;;20.75;20.25;;;;;24.45;57.23;101994.34;2353071;29;45229;-76
2022/07/21 08:56:00;;;;;;;;;19.25;18.25;;;;;24.45;57.17;101997.03;2349682;29;45494;-76
2022/07/21 08:57:11;;;;;;;;;20.00;17.00;;;;;24.46;57.29;102005.97;2356619;29;45300;-76
2022/07/21 08:58:21;;;;;;;;;20.00;17.25;;;;;24.49;56.85;102001.25;2346577;29;46844;-77
2022/07/21 08:59:32;;;;;;;;;18.50;16.00;;;;;24.52;57.29;102000.13;2353815;29;44683;-76
2022/07/21 09:00:45;;;;;;;;;23.50;22.50;;;;;24.55;57.17;102002.59;2364619;29;46198;-77
2022/07/21 09:01:56;;;;;;;;;25.50;21.50;;;;;24.58;56.75;101998.84;2364300;29;45291;-76
2022/07/21 09:03:14;;;;;;;;;29.75;29.00;;;;;24.57;56.81;101997.97;2361064;29;45555;-76
2022/07/21 09:04:31;;;;;;;;;18.75;18.75;;;;;24.57;56.59;102002.50;2356407;29;45300;-76
2022/07/21 09:05:43;;;;;;;;;20.50;19.75;;;;;24.56;56.64;101993.56;2355909;29;48638;-77
2022/07/21 09:07:02;;;;;;;;;20.75;20.75;;;;;24.57;56.67;101992.59;2355476;29;45307;-77
2022/07/21 09:08:13;;;;;;;;;21.50;20.00;;;;;24.55;56.15;101999.03;2355242;29;45346;-76
2022/07/21 09:09:24;;;;;;;;;21.75;19.50;;;;;24.52;56.28;102004.66;2357143;29;45156;-76
2022/07/21 09:10:35;;;;;;;;;18.00;18.00;;;;;24.49;56.79;102001.25;2355679;29;48440;-76
2022/07/21 09:11:46;;;;;;;;;20.25;16.25;;;;;24.49;56.84;101995.88;2350181;29;44717;-76
2022/07/21 09:12:59;;;;;;;;;25.00;21.75;;;;;24.50;56.26;102008.31;2356309;29;45434;-76
2022/07/21 09:14:18;;;;;;;;;22.75;20.25;;;;;24.47;56.56;101997.78;2346717;29;45285;-76
2022/07/21 09:15:32;;;;;;;;;23.00;19.50;;;;;24.45;56.96;101996.19;2350750;29;45395;-76
2022/07/21 09:16:45;;;;;;;;;19.75;19.25;;;;;24.46;56.72;102006.84;2356661;29;45343;-77
2022/07/21 09:18:15;;;;;;;;;27.00;23.00;;;;;24.46;56.44;102009.53;2358445;29;45377;-77
2022/07/21 09:19:32;;;;;;;;;21.75;20.50;;;;;24.44;56.91;102008.78;2363226;29;44784;-77
2022/07/21 09:20:51;;;;;;;;;20.25;19.25;;;;;24.44;56.98;102000.72;2365282;29;45565;-77
2022/07/21 09:22:04;;;;;;;;;22.75;21.75;;;;;24.46;57.07;102001.47;2363438;29;45220;-77
2022/07/21 09:23:16;;;;;;;;;17.75;15.25;;;;;24.49;56.12;102003.94;2346747;29;47205;-77
2022/07/21 09:24:34;;;;;;;;;19.50;16.75;;;;;24.50;56.46;102005.63;2349159;29;45272;-77
2022/07/21 09:25:50;;;;;;;;;19.25;18.00;;;;;24.50;56.92;102004.75;2356059;29;45299;-77
2022/07/21 09:27:03;;;;;;;;;22.25;19.25;;;;;24.52;56.36;102010.03;2356471;29;45498;-77
2022/07/21 09:28:15;;;;;;;;;21.00;17.75;;;;;24.55;56.38;102007.09;2356296;29;45329;-77
2022/07/21 09:29:26;;;;;;;;;16.75;16.50;;;;;24.56;56.35;101995.41;2356464;29;45292;-77
2022/07/21 09:30:57;;;;;;;;;18.00;16.75;;;;;24.59;56.27;102005.94;2356273;29;45674;-77
2022/07/21 09:32:26;;;;;;;;;18.75;15.50;;;;;24.61;56.34;102009.38;2355698;29;45248;-77
2022/07/21 09:33:42;;;;;;;;;19.00;18.25;;;;;24.67;56.15;102005.38;2355943;29;45297;-77
2022/07/21 09:34:54;;;;;;;;;16.25;16.25;;;;;24.71;56.31;102009.53;2356405;29;45356;-77
2022/07/21 09:36:11;;;;;;;;;23.25;19.50;;;;;24.73;56.53;102011.16;2356487;29;46325;-77
2022/07/21 09:37:23;;;;;;;;;19.25;18.50;;;;;24.76;56.16;102002.00;2356178;29;45203;-77
2022/07/21 09:38:35;;;;;;;;;19.75;19.75;;;;;24.79;56.09;102007.13;2356008;29;45604;-77
2022/07/21 09:39:46;;;;;;;;;17.75;17.25;;;;;24.82;56.14;102006.03;2356366;29;45320;-77
2022/07/21 09:41:05;;;;;;;;;18.00;15.75;;;;;24.88;56.38;101999.34;2355680;29;45386;-77
2022/07/21 09:42:29;;;;;;;;;20.75;18.75;;;;;24.91;55.71;102004.50;2356593;29;45406;-76
2022/07/21 09:43:48;;;;;;;;;16.50;15.50;;;;;24.95;55.97;102009.53;2356085;29;46294;-76
2022/07/21 09:45:01;;;;;;;;;19.75;19.00;;;;;24.99;55.68;102007.47;2356701;29;45225;-76
2022/07/21 09:46:18;;;;;;;;;21.50;18.75;;;;;25.01;54.97;102005.56;2349010;29;47934;-76
2022/07/21 09:47:31;;;;;;;;;23.50;19.25;;;;;25.02;55.34;102006.41;2355986;29;44592;-76
2022/07/21 09:48:44;;;;;;;;;18.25;17.50;;;;;25.03;55.39;102002.75;2356222;29;45496;-76
2022/07/21 09:49:56;;;;;;;;;20.50;18.00;;;;;25.05;55.25;102000.81;2356323;29;45275;-76
2022/07/21 09:51:44;;;;;;;;;20.75;17.50;;;;;25.10;55.06;102000.47;2345983;29;48519;-77
2022/07/21 09:52:57;;;;;;;;;24.50;18.00;;;;;25.12;54.97;102002.06;2335299;29;45197;-77
2022/07/21 09:54:12;;;;;;;;;23.25;21.75;;;;;25.14;55.77;101994.72;2336981;29;46163;-77
2022/07/21 09:55:23;;;;;;;;;22.00;20.00;;;;;25.15;55.03;101993.75;2328444;29;45216;-77
2022/07/21 09:56:41;;;;;;;;;23.00;22.00;;;;;25.19;55.12;101990.84;2334562;29;45480;-76
2022/07/21 09:57:55;;;;;;;;;21.25;17.25;;;;;25.21;54.89;101996.97;2337045;29;45304;-75
2022/07/21 09:59:09;;;;;;;;;19.75;18.25;;;;;25.23;54.81;101986.94;2345745;29;46957;-74
2022/07/21 10:00:19;;;;;;;;;19.25;17.50;;;;;25.25;54.90;101975.09;2349591;29;44598;-74
2022/07/21 10:01:30;;;;;;;;;21.25;20.00;;;;;25.28;54.93;101985.63;2354776;29;45368;-74
2022/07/21 10:02:43;;;;;;;;;22.75;19.50;;;;;25.31;55.27;101987.19;2354605;29;45418;-74
2022/07/21 10:03:55;;;;;;;;;21.00;19.75;;;;;25.29;54.56;101992.69;2356237;29;45577;-74
2022/07/21 10:05:09;;;;;;;;;21.00;19.00;;;;;25.29;54.55;101994.53;2355942;29;45313;-76
2022/07/21 10:06:24;;;;;;;;;22.25;20.25;;;;;25.26;54.48;101976.78;2355036;29;48432;-75
2022/07/21 10:07:46;;;;;;;;;18.75;18.00;;;;;25.25;54.78;101984.97;2365510;28;45498;-76
2022/07/21 10:08:59;;;;;;;;;24.25;22.00;;;;;25.27;54.81;101980.34;2361052;29;46747;-76
2022/07/21 10:10:11;;;;;;;;;21.75;20.75;;;;;25.25;54.58;101980.47;2347914;29;45329;-76
2022/07/21 10:11:23;;;;;;;;;28.25;22.25;;;;;25.25;54.64;101983.16;2347726;29;48409;-76
2022/07/21 10:12:34;;;;;;;;;23.00;21.50;;;;;25.25;54.70;101982.28;2355200;29;45180;-76
2022/07/21 10:13:44;;;;;;;;;20.00;19.50;;;;;25.27;54.52;101977.66;2357265;29;46609;-76
2022/07/21 10:14:55;;;;;;;;;24.25;17.00;;;;;25.27;54.66;101983.03;2357671;29;45285;-76
2022/07/21 10:16:08;;;;;;;;;21.25;19.00;;;;;25.27;54.61;101983.91;2356039;29;45342;-75
2022/07/21 10:17:20;;;;;;;;;17.75;16.25;;;;;25.28;54.14;101982.06;2356397;29;45494;-75
2022/07/21 10:18:36;;;;;;;;;19.00;19.00;;;;;25.26;54.44;101979.47;2348873;29;47753;-76
2022/07/21 10:20:10;;;;;;;;;21.50;17.25;;;;;25.28;54.79;101982.06;2350171;29;45618;-76
2022/07/21 10:21:31;;;;;;;;;20.75;18.00;;;;;25.29;54.03;101986.44;2356916;29;45308;-76
2022/07/21 10:23:22;;;;;;;;;22.50;19.75;;;;;25.28;54.36;101980.25;2357650;29;45415;-76
2022/07/21 10:24:32;;;;;;;;;21.75;19.00;;;;;25.26;54.25;101981.34;2357073;29;45741;-75
2022/07/21 10:25:43;;;;;;;;;19.00;16.00;;;;;25.25;54.13;101984.97;2357407;29;44654;-75
2022/07/21 10:27:09;;;;;;;;;21.50;18.50;;;;;25.25;54.34;101979.59;2353534;29;46345;-75
2022/07/21 10:28:22;;;;;;;;;21.00;18.00;;;;;25.26;54.49;101986.72;2353324;29;45277;-75
2022/07/21 10:29:48;;;;;;;;;23.00;21.00;;;;;25.28;54.24;101990.13;2358101;29;45555;-76
2022/07/21 10:30:59;;;;;;;;;17.00;16.75;;;;;25.29;54.42;101995.38;2365931;29;45241;-76
2022/07/21 10:32:11;;;;;;;;;21.75;20.50;;;;;25.30;54.47;101985.50;2349081;29;47134;-75
2022/07/21 10:33:43;;;;;;;;;19.25;17.00;;;;;25.32;54.19;101988.06;2350317;29;45359;-76
2022/07/21 10:34:55;;;;;;;;;19.25;17.75;;;;;25.33;53.85;101992.47;2346552;29;48314;-76
2022/07/21 10:36:06;;;;;;;;;18.50;17.25;;;;;25.34;54.37;101988.78;2350547;29;45466;-75
2022/07/21 10:37:49;;;;;;;;;18.25;16.75;;;;;25.37;53.77;101988.56;2356809;29;45529;-76